sensor_id;sensor_type;location;lat;lon;timestamp;P1;durP1;ratioP1;P2;durP2;ratioP2
70270;SDS011;57680;54.292;18.598;2023-06-22T00:02:17;13.30;;;7.18;;
70270;SDS011;57680;54.292;18.598;2023-06-22T00:04:43;12.68;;;6.75;;
70270;SDS011;57680;54.292;18.598;2023-06-22T00:07:08;12.50;;;7.07;;
70270;SDS011;57680;54.292;18.598;2023-06-22T00:09:37;15.23;;;7.10;;
70270;SDS011;57680;54.292;18.598;2023-06-22T00:12:07;15.27;;;7.70;;
70270;SDS011;57680;54.292;18.598;2023-06-22T00:14:36;15.73;;;7.47;;
70270;SDS011;57680;54.292;18.598;2023-06-22T00:17:05;17.90;;;7.93;;
70270;SDS011;57680;54.292;18.598;2023-06-22T00:19:36;19.90;;;8.10;;
70270;SDS011;57680;54.292;18.598;2023-06-22T00:22:02;15.82;;;7.95;;
70270;SDS011;57680;54.292;18.598;2023-06-22T00:24:27;15.30;;;8.13;;
70270;SDS011;57680;54.292;18.598;2023-06-22T00:26:53;13.57;;;7.23;;
70270;SDS011;57680;54.292;18.598;2023-06-22T00:29:18;15.87;;;7.60;;
70270;SDS011;57680;54.292;18.598;2023-06-22T00:31:44;13.30;;;7.90;;
70270;SDS011;57680;54.292;18.598;2023-06-22T00:34:10;14.90;;;7.47;;
70270;SDS011;57680;54.292;18.598;2023-06-22T00:36:36;13.83;;;8.00;;
70270;SDS011;57680;54.292;18.598;2023-06-22T00:39:01;14.98;;;8.10;;
70270;SDS011;57680;54.292;18.598;2023-06-22T00:41:27;12.57;;;7.77;;
70270;SDS011;57680;54.292;18.598;2023-06-22T00:43:52;14.13;;;7.45;;
70270;SDS011;57680;54.292;18.598;2023-06-22T00:46:18;15.17;;;8.27;;
70270;SDS011;57680;54.292;18.598;2023-06-22T00:48:43;13.70;;;7.03;;
70270;SDS011;57680;54.292;18.598;2023-06-22T00:51:09;14.75;;;7.53;;
70270;SDS011;57680;54.292;18.598;2023-06-22T00:53:35;14.33;;;6.93;;
70270;SDS011;57680;54.292;18.598;2023-06-22T00:56:01;17.63;;;7.20;;
70270;SDS011;57680;54.292;18.598;2023-06-22T00:58:26;13.87;;;7.10;;
70270;SDS011;57680;54.292;18.598;2023-06-22T01:00:52;12.47;;;7.13;;
70270;SDS011;57680;54.292;18.598;2023-06-22T01:03:17;14.40;;;7.38;;
70270;SDS011;57680;54.292;18.598;2023-06-22T01:05:43;15.53;;;7.40;;
70270;SDS011;57680;54.292;18.598;2023-06-22T01:11:26;14.00;;;6.93;;
70270;SDS011;57680;54.292;18.598;2023-06-22T01:14:11;13.30;;;7.28;;
70270;SDS011;57680;54.292;18.598;2023-06-22T01:16:41;13.73;;;7.07;;
70270;SDS011;57680;54.292;18.598;2023-06-22T01:19:33;14.90;;;7.50;;
70270;SDS011;57680;54.292;18.598;2023-06-22T01:22:00;14.33;;;7.93;;
70270;SDS011;57680;54.292;18.598;2023-06-22T01:24:27;14.68;;;7.65;;
70270;SDS011;57680;54.292;18.598;2023-06-22T01:27:05;13.27;;;7.13;;
70270;SDS011;57680;54.292;18.598;2023-06-22T01:29:57;15.00;;;7.15;;
70270;SDS011;57680;54.292;18.598;2023-06-22T01:32:24;14.07;;;7.53;;
70270;SDS011;57680;54.292;18.598;2023-06-22T01:34:50;13.90;;;7.13;;
70270;SDS011;57680;54.292;18.598;2023-06-22T01:37:16;16.70;;;8.00;;
70270;SDS011;57680;54.292;18.598;2023-06-22T01:39:41;15.53;;;7.60;;
70270;SDS011;57680;54.292;18.598;2023-06-22T01:42:07;17.30;;;7.40;;
70270;SDS011;57680;54.292;18.598;2023-06-22T01:44:33;17.88;;;7.70;;
70270;SDS011;57680;54.292;18.598;2023-06-22T01:46:59;15.60;;;7.57;;
70270;SDS011;57680;54.292;18.598;2023-06-22T01:49:25;16.58;;;7.93;;
70270;SDS011;57680;54.292;18.598;2023-06-22T01:51:51;16.03;;;8.10;;
70270;SDS011;57680;54.292;18.598;2023-06-22T01:54:16;18.25;;;8.38;;
70270;SDS011;57680;54.292;18.598;2023-06-22T01:56:42;17.50;;;8.53;;
70270;SDS011;57680;54.292;18.598;2023-06-22T01:59:16;16.70;;;8.10;;
70270;SDS011;57680;54.292;18.598;2023-06-22T02:01:52;19.30;;;7.60;;
70270;SDS011;57680;54.292;18.598;2023-06-22T02:04:24;19.00;;;9.05;;
70270;SDS011;57680;54.292;18.598;2023-06-22T02:06:55;15.95;;;7.82;;
70270;SDS011;57680;54.292;18.598;2023-06-22T02:09:23;19.35;;;8.93;;
70270;SDS011;57680;54.292;18.598;2023-06-22T02:11:54;17.95;;;9.02;;
70270;SDS011;57680;54.292;18.598;2023-06-22T02:14:21;18.50;;;9.03;;
70270;SDS011;57680;54.292;18.598;2023-06-22T02:16:48;16.15;;;8.10;;
70270;SDS011;57680;54.292;18.598;2023-06-22T02:19:15;19.45;;;9.68;;
70270;SDS011;57680;54.292;18.598;2023-06-22T02:21:41;20.27;;;9.17;;
70270;SDS011;57680;54.292;18.598;2023-06-22T02:24:06;18.38;;;9.25;;
70270;SDS011;57680;54.292;18.598;2023-06-22T02:26:32;19.07;;;8.87;;
70270;SDS011;57680;54.292;18.598;2023-06-22T02:28:57;17.70;;;9.07;;
70270;SDS011;57680;54.292;18.598;2023-06-22T02:31:23;18.90;;;10.20;;
70270;SDS011;57680;54.292;18.598;2023-06-22T02:33:48;16.90;;;8.82;;
70270;SDS011;57680;54.292;18.598;2023-06-22T02:36:14;18.20;;;8.90;;
70270;SDS011;57680;54.292;18.598;2023-06-22T02:38:43;20.33;;;9.70;;
70270;SDS011;57680;54.292;18.598;2023-06-22T02:41:09;19.45;;;9.80;;
70270;SDS011;57680;54.292;18.598;2023-06-22T02:43:34;22.10;;;9.85;;
70270;SDS011;57680;54.292;18.598;2023-06-22T02:45:59;23.67;;;10.70;;
70270;SDS011;57680;54.292;18.598;2023-06-22T02:48:26;20.10;;;9.13;;
70270;SDS011;57680;54.292;18.598;2023-06-22T02:50:51;19.90;;;8.65;;
70270;SDS011;57680;54.292;18.598;2023-06-22T02:53:17;21.43;;;10.83;;
70270;SDS011;57680;54.292;18.598;2023-06-22T02:55:42;24.42;;;10.85;;
70270;SDS011;57680;54.292;18.598;2023-06-22T02:58:08;21.10;;;10.23;;
70270;SDS011;57680;54.292;18.598;2023-06-22T03:00:33;19.97;;;10.10;;
70270;SDS011;57680;54.292;18.598;2023-06-22T03:02:59;24.17;;;10.73;;
70270;SDS011;57680;54.292;18.598;2023-06-22T03:05:24;20.63;;;9.82;;
70270;SDS011;57680;54.292;18.598;2023-06-22T03:07:50;22.40;;;11.07;;
70270;SDS011;57680;54.292;18.598;2023-06-22T03:10:15;22.60;;;10.87;;
70270;SDS011;57680;54.292;18.598;2023-06-22T03:12:42;20.10;;;10.38;;
70270;SDS011;57680;54.292;18.598;2023-06-22T03:15:08;18.90;;;9.77;;
70270;SDS011;57680;54.292;18.598;2023-06-22T03:17:35;18.00;;;9.37;;
70270;SDS011;57680;54.292;18.598;2023-06-22T03:20:05;21.15;;;10.55;;
70270;SDS011;57680;54.292;18.598;2023-06-22T03:22:31;22.85;;;10.18;;
70270;SDS011;57680;54.292;18.598;2023-06-22T03:24:57;19.87;;;9.67;;
70270;SDS011;57680;54.292;18.598;2023-06-22T03:27:22;19.17;;;10.00;;
70270;SDS011;57680;54.292;18.598;2023-06-22T03:29:47;20.77;;;8.90;;
70270;SDS011;57680;54.292;18.598;2023-06-22T03:32:13;20.97;;;9.90;;
70270;SDS011;57680;54.292;18.598;2023-06-22T03:34:38;20.43;;;9.90;;
70270;SDS011;57680;54.292;18.598;2023-06-22T03:37:04;17.57;;;9.10;;
70270;SDS011;57680;54.292;18.598;2023-06-22T03:39:30;17.80;;;9.00;;
70270;SDS011;57680;54.292;18.598;2023-06-22T03:41:56;18.42;;;8.88;;
70270;SDS011;57680;54.292;18.598;2023-06-22T03:44:22;16.30;;;7.93;;
70270;SDS011;57680;54.292;18.598;2023-06-22T03:46:47;17.17;;;8.83;;
70270;SDS011;57680;54.292;18.598;2023-06-22T03:49:13;17.60;;;8.23;;
70270;SDS011;57680;54.292;18.598;2023-06-22T03:51:38;18.20;;;8.50;;
70270;SDS011;57680;54.292;18.598;2023-06-22T03:54:04;15.10;;;8.90;;
70270;SDS011;57680;54.292;18.598;2023-06-22T03:56:29;16.37;;;8.60;;
70270;SDS011;57680;54.292;18.598;2023-06-22T03:58:55;16.53;;;8.00;;
70270;SDS011;57680;54.292;18.598;2023-06-22T04:01:20;15.88;;;8.45;;
70270;SDS011;57680;54.292;18.598;2023-06-22T04:03:45;16.63;;;8.00;;
70270;SDS011;57680;54.292;18.598;2023-06-22T04:06:11;19.90;;;8.67;;
70270;SDS011;57680;54.292;18.598;2023-06-22T04:08:36;16.90;;;7.27;;
70270;SDS011;57680;54.292;18.598;2023-06-22T04:11:02;14.48;;;7.68;;
70270;SDS011;57680;54.292;18.598;2023-06-22T04:13:27;15.77;;;7.23;;
70270;SDS011;57680;54.292;18.598;2023-06-22T04:15:53;14.47;;;7.73;;
70270;SDS011;57680;54.292;18.598;2023-06-22T04:18:18;14.97;;;8.10;;
70270;SDS011;57680;54.292;18.598;2023-06-22T04:20:43;17.85;;;7.75;;
70270;SDS011;57680;54.292;18.598;2023-06-22T04:23:09;14.43;;;8.00;;
70270;SDS011;57680;54.292;18.598;2023-06-22T04:25:34;13.73;;;7.97;;
70270;SDS011;57680;54.292;18.598;2023-06-22T04:28:00;16.13;;;8.17;;
70270;SDS011;57680;54.292;18.598;2023-06-22T04:30:25;14.73;;;7.60;;
70270;SDS011;57680;54.292;18.598;2023-06-22T04:32:52;15.70;;;8.37;;
70270;SDS011;57680;54.292;18.598;2023-06-22T04:35:17;14.35;;;7.85;;
70270;SDS011;57680;54.292;18.598;2023-06-22T04:37:43;12.17;;;7.47;;
70270;SDS011;57680;54.292;18.598;2023-06-22T04:40:08;11.98;;;7.10;;
70270;SDS011;57680;54.292;18.598;2023-06-22T04:42:34;15.13;;;7.20;;
70270;SDS011;57680;54.292;18.598;2023-06-22T04:45:00;14.27;;;7.22;;
70270;SDS011;57680;54.292;18.598;2023-06-22T04:47:25;14.20;;;7.30;;
70270;SDS011;57680;54.292;18.598;2023-06-22T04:49:51;12.73;;;7.50;;
70270;SDS011;57680;54.292;18.598;2023-06-22T04:52:16;15.50;;;7.77;;
70270;SDS011;57680;54.292;18.598;2023-06-22T04:54:41;15.05;;;7.78;;
70270;SDS011;57680;54.292;18.598;2023-06-22T04:57:07;11.50;;;6.40;;
70270;SDS011;57680;54.292;18.598;2023-06-22T04:59:33;13.43;;;7.00;;
70270;SDS011;57680;54.292;18.598;2023-06-22T05:02:00;15.40;;;7.20;;
70270;SDS011;57680;54.292;18.598;2023-06-22T05:04:27;17.70;;;7.78;;
70270;SDS011;57680;54.292;18.598;2023-06-22T05:06:54;15.20;;;6.95;;
70270;SDS011;57680;54.292;18.598;2023-06-22T05:09:19;13.50;;;7.32;;
70270;SDS011;57680;54.292;18.598;2023-06-22T05:11:45;14.40;;;7.20;;
70270;SDS011;57680;54.292;18.598;2023-06-22T05:14:11;12.20;;;6.90;;
70270;SDS011;57680;54.292;18.598;2023-06-22T05:16:37;13.73;;;6.70;;
70270;SDS011;57680;54.292;18.598;2023-06-22T05:19:03;13.77;;;6.13;;
70270;SDS011;57680;54.292;18.598;2023-06-22T05:21:29;14.43;;;5.97;;
70270;SDS011;57680;54.292;18.598;2023-06-22T05:23:56;11.57;;;6.10;;
70270;SDS011;57680;54.292;18.598;2023-06-22T05:26:22;12.50;;;5.72;;
70270;SDS011;57680;54.292;18.598;2023-06-22T05:28:49;12.82;;;6.00;;
70270;SDS011;57680;54.292;18.598;2023-06-22T05:31:15;12.80;;;6.10;;
70270;SDS011;57680;54.292;18.598;2023-06-22T05:33:41;12.30;;;5.68;;
70270;SDS011;57680;54.292;18.598;2023-06-22T05:36:07;12.38;;;5.55;;
70270;SDS011;57680;54.292;18.598;2023-06-22T05:38:33;9.77;;;4.60;;
70270;SDS011;57680;54.292;18.598;2023-06-22T05:40:58;9.10;;;5.00;;
70270;SDS011;57680;54.292;18.598;2023-06-22T05:43:24;9.87;;;5.23;;
70270;SDS011;57680;54.292;18.598;2023-06-22T05:45:49;11.03;;;5.13;;
70270;SDS011;57680;54.292;18.598;2023-06-22T05:48:15;9.00;;;4.13;;
70270;SDS011;57680;54.292;18.598;2023-06-22T05:50:40;11.10;;;4.80;;
70270;SDS011;57680;54.292;18.598;2023-06-22T05:53:05;8.70;;;4.00;;
70270;SDS011;57680;54.292;18.598;2023-06-22T05:55:31;9.85;;;4.38;;
70270;SDS011;57680;54.292;18.598;2023-06-22T05:57:56;9.47;;;4.00;;
70270;SDS011;57680;54.292;18.598;2023-06-22T06:00:22;11.57;;;4.50;;
70270;SDS011;57680;54.292;18.598;2023-06-22T06:02:47;10.40;;;4.27;;
70270;SDS011;57680;54.292;18.598;2023-06-22T06:05:12;9.63;;;3.97;;
70270;SDS011;57680;54.292;18.598;2023-06-22T06:07:39;8.13;;;4.10;;
70270;SDS011;57680;54.292;18.598;2023-06-22T06:10:05;9.05;;;4.50;;
70270;SDS011;57680;54.292;18.598;2023-06-22T06:12:30;11.50;;;4.15;;
70270;SDS011;57680;54.292;18.598;2023-06-22T06:14:56;15.73;;;4.53;;
70270;SDS011;57680;54.292;18.598;2023-06-22T06:17:21;11.97;;;4.20;;
70270;SDS011;57680;54.292;18.598;2023-06-22T06:19:47;8.63;;;3.83;;
70270;SDS011;57680;54.292;18.598;2023-06-22T06:22:12;8.07;;;3.67;;
70270;SDS011;57680;54.292;18.598;2023-06-22T06:24:37;9.70;;;3.70;;
70270;SDS011;57680;54.292;18.598;2023-06-22T06:27:03;9.27;;;3.10;;
70270;SDS011;57680;54.292;18.598;2023-06-22T06:29:28;8.98;;;3.65;;
70270;SDS011;57680;54.292;18.598;2023-06-22T06:31:54;8.37;;;3.73;;
70270;SDS011;57680;54.292;18.598;2023-06-22T06:34:20;7.73;;;3.70;;
70270;SDS011;57680;54.292;18.598;2023-06-22T06:36:45;12.23;;;3.70;;
70270;SDS011;57680;54.292;18.598;2023-06-22T06:39:11;8.80;;;3.50;;
70270;SDS011;57680;54.292;18.598;2023-06-22T06:41:37;6.90;;;3.30;;
70270;SDS011;57680;54.292;18.598;2023-06-22T06:44:02;7.93;;;3.20;;
70270;SDS011;57680;54.292;18.598;2023-06-22T06:46:28;7.85;;;3.17;;
70270;SDS011;57680;54.292;18.598;2023-06-22T06:48:54;8.57;;;3.23;;
70270;SDS011;57680;54.292;18.598;2023-06-22T06:51:19;12.43;;;3.27;;
70270;SDS011;57680;54.292;18.598;2023-06-22T06:53:45;7.53;;;3.30;;
70270;SDS011;57680;54.292;18.598;2023-06-22T06:56:11;7.90;;;3.08;;
70270;SDS011;57680;54.292;18.598;2023-06-22T06:58:37;9.80;;;3.40;;
70270;SDS011;57680;54.292;18.598;2023-06-22T07:01:05;8.15;;;2.90;;
70270;SDS011;57680;54.292;18.598;2023-06-22T07:03:31;7.87;;;2.50;;
70270;SDS011;57680;54.292;18.598;2023-06-22T07:05:56;8.10;;;2.60;;
70270;SDS011;57680;54.292;18.598;2023-06-22T07:08:22;6.93;;;2.60;;
70270;SDS011;57680;54.292;18.598;2023-06-22T07:10:47;6.82;;;2.65;;
70270;SDS011;57680;54.292;18.598;2023-06-22T07:13:13;6.90;;;2.80;;
70270;SDS011;57680;54.292;18.598;2023-06-22T07:15:38;5.57;;;2.83;;
70270;SDS011;57680;54.292;18.598;2023-06-22T07:18:04;6.27;;;2.43;;
70270;SDS011;57680;54.292;18.598;2023-06-22T07:20:29;9.57;;;2.57;;
70270;SDS011;57680;54.292;18.598;2023-06-22T07:22:55;10.87;;;3.10;;
70270;SDS011;57680;54.292;18.598;2023-06-22T07:25:20;8.75;;;2.28;;
70270;SDS011;57680;54.292;18.598;2023-06-22T07:27:56;5.90;;;2.30;;
70270;SDS011;57680;54.292;18.598;2023-06-22T07:30:26;7.43;;;2.58;;
70270;SDS011;57680;54.292;18.598;2023-06-22T07:32:52;5.20;;;2.27;;
70270;SDS011;57680;54.292;18.598;2023-06-22T07:35:17;8.68;;;2.50;;
70270;SDS011;57680;54.292;18.598;2023-06-22T07:37:43;5.93;;;2.20;;
70270;SDS011;57680;54.292;18.598;2023-06-22T07:40:09;25.15;;;3.20;;
70270;SDS011;57680;54.292;18.598;2023-06-22T07:42:35;7.37;;;2.03;;
70270;SDS011;57680;54.292;18.598;2023-06-22T07:45:01;7.80;;;2.38;;
70270;SDS011;57680;54.292;18.598;2023-06-22T07:47:30;7.03;;;2.33;;
70270;SDS011;57680;54.292;18.598;2023-06-22T07:49:58;6.72;;;2.42;;
70270;SDS011;57680;54.292;18.598;2023-06-22T07:52:24;5.90;;;2.47;;
70270;SDS011;57680;54.292;18.598;2023-06-22T07:54:49;6.55;;;2.30;;
70270;SDS011;57680;54.292;18.598;2023-06-22T07:57:15;7.50;;;2.50;;
70270;SDS011;57680;54.292;18.598;2023-06-22T07:59:41;9.75;;;2.33;;
70270;SDS011;57680;54.292;18.598;2023-06-22T08:02:06;5.37;;;2.10;;
70270;SDS011;57680;54.292;18.598;2023-06-22T08:04:32;4.70;;;1.95;;
70270;SDS011;57680;54.292;18.598;2023-06-22T08:06:57;6.43;;;2.30;;
70270;SDS011;57680;54.292;18.598;2023-06-22T08:09:22;7.60;;;2.43;;
70270;SDS011;57680;54.292;18.598;2023-06-22T08:11:48;6.13;;;2.40;;
70270;SDS011;57680;54.292;18.598;2023-06-22T08:14:13;6.97;;;2.10;;
70270;SDS011;57680;54.292;18.598;2023-06-22T08:16:39;4.32;;;1.90;;
70270;SDS011;57680;54.292;18.598;2023-06-22T08:19:04;4.77;;;2.17;;
70270;SDS011;57680;54.292;18.598;2023-06-22T08:21:30;5.70;;;2.50;;
70270;SDS011;57680;54.292;18.598;2023-06-22T08:23:55;17.47;;;3.10;;
70270;SDS011;57680;54.292;18.598;2023-06-22T08:26:21;6.15;;;2.13;;
70270;SDS011;57680;54.292;18.598;2023-06-22T08:28:46;12.60;;;2.70;;
70270;SDS011;57680;54.292;18.598;2023-06-22T08:31:11;6.03;;;2.40;;
70270;SDS011;57680;54.292;18.598;2023-06-22T08:33:37;5.53;;;2.27;;
70270;SDS011;57680;54.292;18.598;2023-06-22T08:36:03;5.47;;;2.23;;
70270;SDS011;57680;54.292;18.598;2023-06-22T08:38:29;6.53;;;2.30;;
70270;SDS011;57680;54.292;18.598;2023-06-22T08:40:54;6.17;;;2.60;;
70270;SDS011;57680;54.292;18.598;2023-06-22T08:43:20;5.97;;;2.30;;
70270;SDS011;57680;54.292;18.598;2023-06-22T08:45:45;6.38;;;2.10;;
70270;SDS011;57680;54.292;18.598;2023-06-22T08:48:10;6.83;;;2.47;;
70270;SDS011;57680;54.292;18.598;2023-06-22T08:50:36;6.83;;;2.50;;
70270;SDS011;57680;54.292;18.598;2023-06-22T08:53:02;6.33;;;2.33;;
70270;SDS011;57680;54.292;18.598;2023-06-22T08:55:27;8.00;;;2.13;;
70270;SDS011;57680;54.292;18.598;2023-06-22T08:57:54;5.87;;;2.40;;
70270;SDS011;57680;54.292;18.598;2023-06-22T09:00:19;12.27;;;3.05;;
70270;SDS011;57680;54.292;18.598;2023-06-22T09:02:46;7.55;;;2.50;;
70270;SDS011;57680;54.292;18.598;2023-06-22T09:05:12;7.17;;;2.50;;
70270;SDS011;57680;54.292;18.598;2023-06-22T09:07:38;8.07;;;2.30;;
70270;SDS011;57680;54.292;18.598;2023-06-22T09:10:04;8.37;;;2.50;;
70270;SDS011;57680;54.292;18.598;2023-06-22T09:12:31;6.47;;;2.35;;
70270;SDS011;57680;54.292;18.598;2023-06-22T09:14:56;6.70;;;2.60;;
70270;SDS011;57680;54.292;18.598;2023-06-22T09:17:22;11.20;;;2.13;;
70270;SDS011;57680;54.292;18.598;2023-06-22T09:19:47;8.05;;;1.95;;
70270;SDS011;57680;54.292;18.598;2023-06-22T09:22:13;5.60;;;2.03;;
70270;SDS011;57680;54.292;18.598;2023-06-22T09:24:38;4.67;;;1.70;;
70270;SDS011;57680;54.292;18.598;2023-06-22T09:27:04;5.15;;;1.98;;
70270;SDS011;57680;54.292;18.598;2023-06-22T09:29:30;11.63;;;2.80;;
70270;SDS011;57680;54.292;18.598;2023-06-22T09:31:55;6.35;;;2.20;;
70270;SDS011;57680;54.292;18.598;2023-06-22T09:34:21;7.83;;;1.87;;
70270;SDS011;57680;54.292;18.598;2023-06-22T09:36:47;5.00;;;1.98;;
70270;SDS011;57680;54.292;18.598;2023-06-22T09:39:12;5.60;;;2.30;;
70270;SDS011;57680;54.292;18.598;2023-06-22T09:41:38;8.37;;;2.10;;
70270;SDS011;57680;54.292;18.598;2023-06-22T09:44:03;6.90;;;2.10;;
70270;SDS011;57680;54.292;18.598;2023-06-22T09:46:29;5.63;;;2.13;;
70270;SDS011;57680;54.292;18.598;2023-06-22T09:48:55;8.10;;;2.33;;
70270;SDS011;57680;54.292;18.598;2023-06-22T09:51:20;6.35;;;2.38;;
70270;SDS011;57680;54.292;18.598;2023-06-22T09:53:45;5.73;;;2.30;;
70270;SDS011;57680;54.292;18.598;2023-06-22T09:56:11;9.13;;;2.33;;
70270;SDS011;57680;54.292;18.598;2023-06-22T09:58:37;7.43;;;2.10;;
70270;SDS011;57680;54.292;18.598;2023-06-22T10:01:02;5.50;;;2.30;;
70270;SDS011;57680;54.292;18.598;2023-06-22T10:03:28;6.17;;;2.20;;
70270;SDS011;57680;54.292;18.598;2023-06-22T10:05:53;7.45;;;2.25;;
70270;SDS011;57680;54.292;18.598;2023-06-22T10:08:18;8.17;;;2.40;;
70270;SDS011;57680;54.292;18.598;2023-06-22T10:10:44;6.60;;;2.10;;
70270;SDS011;57680;54.292;18.598;2023-06-22T10:13:10;6.73;;;2.13;;
70270;SDS011;57680;54.292;18.598;2023-06-22T10:15:35;7.32;;;2.20;;
70270;SDS011;57680;54.292;18.598;2023-06-22T10:18:01;5.60;;;2.40;;
70270;SDS011;57680;54.292;18.598;2023-06-22T10:20:27;4.78;;;2.03;;
70270;SDS011;57680;54.292;18.598;2023-06-22T10:22:52;6.27;;;2.73;;
70270;SDS011;57680;54.292;18.598;2023-06-22T10:25:17;6.23;;;2.20;;
70270;SDS011;57680;54.292;18.598;2023-06-22T10:27:43;7.88;;;2.33;;
70270;SDS011;57680;54.292;18.598;2023-06-22T10:30:09;6.37;;;2.50;;
70270;SDS011;57680;54.292;18.598;2023-06-22T10:32:37;5.20;;;2.38;;
70270;SDS011;57680;54.292;18.598;2023-06-22T10:35:03;6.70;;;2.30;;
70270;SDS011;57680;54.292;18.598;2023-06-22T10:37:28;6.27;;;2.40;;
70270;SDS011;57680;54.292;18.598;2023-06-22T10:39:54;4.70;;;2.30;;
70270;SDS011;57680;54.292;18.598;2023-06-22T10:42:19;9.65;;;2.60;;
70270;SDS011;57680;54.292;18.598;2023-06-22T10:44:45;7.27;;;2.37;;
70270;SDS011;57680;54.292;18.598;2023-06-22T10:47:11;5.73;;;2.30;;
70270;SDS011;57680;54.292;18.598;2023-06-22T10:49:39;5.53;;;2.00;;
70270;SDS011;57680;54.292;18.598;2023-06-22T10:52:08;7.03;;;2.20;;
70270;SDS011;57680;54.292;18.598;2023-06-22T10:54:36;6.97;;;2.20;;
70270;SDS011;57680;54.292;18.598;2023-06-22T10:57:02;4.95;;;2.10;;
70270;SDS011;57680;54.292;18.598;2023-06-22T10:59:28;5.33;;;2.20;;
70270;SDS011;57680;54.292;18.598;2023-06-22T11:01:55;10.23;;;2.35;;
70270;SDS011;57680;54.292;18.598;2023-06-22T11:04:21;8.77;;;2.50;;
70270;SDS011;57680;54.292;18.598;2023-06-22T11:06:47;6.63;;;2.50;;
70270;SDS011;57680;54.292;18.598;2023-06-22T11:09:13;7.63;;;2.25;;
70270;SDS011;57680;54.292;18.598;2023-06-22T11:11:38;7.70;;;2.20;;
70270;SDS011;57680;54.292;18.598;2023-06-22T11:14:04;5.13;;;2.37;;
70270;SDS011;57680;54.292;18.598;2023-06-22T11:16:29;5.20;;;2.10;;
70270;SDS011;57680;54.292;18.598;2023-06-22T11:18:55;8.23;;;1.80;;
70270;SDS011;57680;54.292;18.598;2023-06-22T11:21:20;5.63;;;2.20;;
70270;SDS011;57680;54.292;18.598;2023-06-22T11:23:46;6.10;;;2.30;;
70270;SDS011;57680;54.292;18.598;2023-06-22T11:26:11;4.93;;;2.10;;
70270;SDS011;57680;54.292;18.598;2023-06-22T11:28:36;8.07;;;2.30;;
70270;SDS011;57680;54.292;18.598;2023-06-22T11:31:02;6.90;;;1.90;;
70270;SDS011;57680;54.292;18.598;2023-06-22T11:33:28;16.63;;;2.40;;
70270;SDS011;57680;54.292;18.598;2023-06-22T11:35:53;6.35;;;2.03;;
70270;SDS011;57680;54.292;18.598;2023-06-22T11:38:19;4.33;;;1.90;;
70270;SDS011;57680;54.292;18.598;2023-06-22T11:40:44;5.63;;;2.30;;
70270;SDS011;57680;54.292;18.598;2023-06-22T11:43:10;5.07;;;2.00;;
70270;SDS011;57680;54.292;18.598;2023-06-22T11:45:35;9.02;;;2.10;;
70270;SDS011;57680;54.292;18.598;2023-06-22T11:48:01;6.40;;;1.90;;
70270;SDS011;57680;54.292;18.598;2023-06-22T11:50:26;5.77;;;2.17;;
70270;SDS011;57680;54.292;18.598;2023-06-22T11:52:51;5.35;;;2.03;;
70270;SDS011;57680;54.292;18.598;2023-06-22T11:55:16;9.53;;;2.10;;
70270;SDS011;57680;54.292;18.598;2023-06-22T11:57:55;5.03;;;1.67;;
70270;SDS011;57680;54.292;18.598;2023-06-22T12:00:21;5.70;;;2.20;;
70270;SDS011;57680;54.292;18.598;2023-06-22T12:02:48;5.63;;;1.90;;
70270;SDS011;57680;54.292;18.598;2023-06-22T12:05:13;6.20;;;1.92;;
70270;SDS011;57680;54.292;18.598;2023-06-22T12:07:38;8.23;;;3.00;;
70270;SDS011;57680;54.292;18.598;2023-06-22T12:10:04;8.17;;;3.13;;
70270;SDS011;57680;54.292;18.598;2023-06-22T12:12:30;10.02;;;3.13;;
70270;SDS011;57680;54.292;18.598;2023-06-22T12:14:55;10.57;;;2.90;;
70270;SDS011;57680;54.292;18.598;2023-06-22T12:17:20;8.40;;;3.23;;
70270;SDS011;57680;54.292;18.598;2023-06-22T12:19:46;10.00;;;2.90;;
70270;SDS011;57680;54.292;18.598;2023-06-22T12:22:11;10.30;;;2.88;;
70270;SDS011;57680;54.292;18.598;2023-06-22T12:24:37;7.37;;;2.37;;
70270;SDS011;57680;54.292;18.598;2023-06-22T12:27:02;9.03;;;2.90;;
70270;SDS011;57680;54.292;18.598;2023-06-22T12:29:28;8.23;;;2.90;;
70270;SDS011;57680;54.292;18.598;2023-06-22T12:31:53;6.43;;;3.03;;
70270;SDS011;57680;54.292;18.598;2023-06-22T12:34:19;6.97;;;3.60;;
70270;SDS011;57680;54.292;18.598;2023-06-22T12:36:44;7.47;;;2.90;;
70270;SDS011;57680;54.292;18.598;2023-06-22T12:39:10;6.00;;;2.40;;
70270;SDS011;57680;54.292;18.598;2023-06-22T12:41:35;10.37;;;3.00;;
70270;SDS011;57680;54.292;18.598;2023-06-22T12:44:00;6.97;;;2.70;;
70270;SDS011;57680;54.292;18.598;2023-06-22T12:46:27;7.43;;;2.83;;
70270;SDS011;57680;54.292;18.598;2023-06-22T12:48:52;7.67;;;2.97;;
70270;SDS011;57680;54.292;18.598;2023-06-22T12:51:21;10.57;;;3.03;;
70270;SDS011;57680;54.292;18.598;2023-06-22T12:53:47;8.60;;;2.92;;
70270;SDS011;57680;54.292;18.598;2023-06-22T12:56:12;6.60;;;3.00;;
70270;SDS011;57680;54.292;18.598;2023-06-22T12:58:38;8.50;;;3.17;;
70270;SDS011;57680;54.292;18.598;2023-06-22T13:01:03;7.53;;;3.20;;
70270;SDS011;57680;54.292;18.598;2023-06-22T13:03:30;6.17;;;2.97;;
70270;SDS011;57680;54.292;18.598;2023-06-22T13:05:55;9.10;;;3.40;;
70270;SDS011;57680;54.292;18.598;2023-06-22T13:08:21;6.27;;;3.03;;
70270;SDS011;57680;54.292;18.598;2023-06-22T13:10:46;5.97;;;3.10;;
70270;SDS011;57680;54.292;18.598;2023-06-22T13:13:12;11.83;;;3.23;;
70270;SDS011;57680;54.292;18.598;2023-06-22T13:15:37;8.87;;;3.13;;
70270;SDS011;57680;54.292;18.598;2023-06-22T13:18:02;8.17;;;3.33;;
70270;SDS011;57680;54.292;18.598;2023-06-22T13:20:28;7.77;;;2.80;;
70270;SDS011;57680;54.292;18.598;2023-06-22T13:22:54;8.48;;;2.80;;
70270;SDS011;57680;54.292;18.598;2023-06-22T13:25:19;7.50;;;2.70;;
70270;SDS011;57680;54.292;18.598;2023-06-22T13:27:45;7.15;;;2.78;;
70270;SDS011;57680;54.292;18.598;2023-06-22T13:30:11;7.43;;;3.07;;
70270;SDS011;57680;54.292;18.598;2023-06-22T13:32:36;7.60;;;2.78;;
70270;SDS011;57680;54.292;18.598;2023-06-22T13:35:02;7.93;;;2.87;;
70270;SDS011;57680;54.292;18.598;2023-06-22T13:37:27;7.90;;;2.67;;
70270;SDS011;57680;54.292;18.598;2023-06-22T13:39:53;8.70;;;2.90;;
70270;SDS011;57680;54.292;18.598;2023-06-22T13:42:18;7.70;;;2.80;;
70270;SDS011;57680;54.292;18.598;2023-06-22T13:44:44;9.43;;;2.70;;
70270;SDS011;57680;54.292;18.598;2023-06-22T13:47:09;7.72;;;2.97;;
70270;SDS011;57680;54.292;18.598;2023-06-22T13:49:35;6.73;;;2.67;;
70270;SDS011;57680;54.292;18.598;2023-06-22T13:52:00;6.37;;;2.80;;
70270;SDS011;57680;54.292;18.598;2023-06-22T13:54:26;9.17;;;2.93;;
70270;SDS011;57680;54.292;18.598;2023-06-22T13:56:51;7.85;;;2.70;;
70270;SDS011;57680;54.292;18.598;2023-06-22T13:59:18;7.57;;;3.00;;
70270;SDS011;57680;54.292;18.598;2023-06-22T14:01:43;7.28;;;2.92;;
70270;SDS011;57680;54.292;18.598;2023-06-22T14:04:09;6.63;;;2.37;;
70270;SDS011;57680;54.292;18.598;2023-06-22T14:06:35;6.85;;;2.78;;
70270;SDS011;57680;54.292;18.598;2023-06-22T14:09:00;8.93;;;2.57;;
70270;SDS011;57680;54.292;18.598;2023-06-22T14:11:25;9.13;;;2.93;;
70270;SDS011;57680;54.292;18.598;2023-06-22T14:13:51;6.87;;;2.80;;
70270;SDS011;57680;54.292;18.598;2023-06-22T14:16:16;7.03;;;2.50;;
70270;SDS011;57680;54.292;18.598;2023-06-22T14:18:42;5.55;;;2.50;;
70270;SDS011;57680;54.292;18.598;2023-06-22T14:21:07;5.50;;;2.60;;
70270;SDS011;57680;54.292;18.598;2023-06-22T14:23:33;7.53;;;2.47;;
70270;SDS011;57680;54.292;18.598;2023-06-22T14:25:58;6.55;;;2.72;;